createdAt,value
2018-09-06T00:00:16.137Z,15.2
2018-09-06T00:01:16.062Z,15.2
2018-09-06T00:02:16.994Z,15.3
2018-09-06T00:03:16.923Z,15.3
2018-09-06T00:04:17.104Z,15.3
2018-09-06T00:05:17.027Z,15.3
2018-09-06T00:06:20.151Z,15.3
2018-09-06T00:07:20.068Z,15.2
2018-09-06T00:08:25.949Z,15.2
2018-09-06T00:09:25.895Z,15.2
2018-09-06T00:10:31.398Z,15.1
2018-09-06T00:11:31.306Z,15.2
2018-09-06T00:12:32.240Z,15.1
2018-09-06T00:13:32.155Z,15.1
2018-09-06T00:14:32.085Z,15.2
2018-09-06T00:15:32.244Z,15.2
2018-09-06T00:16:32.145Z,15.2
2018-09-06T00:17:35.190Z,15.2
2018-09-06T00:18:35.103Z,15.2
2018-09-06T00:19:37.723Z,15.2
2018-09-06T00:20:38.304Z,15.2
2018-09-06T00:21:38.228Z,15.3
2018-09-06T00:22:42.267Z,15.2
2018-09-06T00:23:42.176Z,15.2
2018-09-06T00:24:42.345Z,15.2
2018-09-06T00:25:42.256Z,15.3
2018-09-06T00:26:46.146Z,15.2
2018-09-06T00:27:46.061Z,15.2
2018-09-06T00:28:49.897Z,15.1
2018-09-06T00:29:49.860Z,15.1
2018-09-06T00:30:56.649Z,15
2018-09-06T00:31:56.551Z,15
2018-09-06T00:32:56.485Z,15
2018-09-06T00:33:56.418Z,15
2018-09-06T00:35:00.259Z,15
2018-09-06T00:36:00.175Z,15
2018-09-06T00:37:00.334Z,15
2018-09-06T00:38:00.265Z,15
2018-09-06T00:39:04.027Z,14.9
2018-09-06T00:40:03.968Z,15
2018-09-06T00:41:08.841Z,14.8
2018-09-06T00:42:09.788Z,14.9
2018-09-06T00:43:09.726Z,14.8
2018-09-06T00:44:13.211Z,14.7
2018-09-06T00:45:13.144Z,14.9
2018-09-06T00:46:13.109Z,14.9
2018-09-06T00:47:13.028Z,14.8
2018-09-06T00:48:12.934Z,14.9
2018-09-06T00:49:13.080Z,14.8
2018-09-06T00:50:12.978Z,14.8
2018-09-06T00:51:13.370Z,14.8
2018-09-06T00:52:13.325Z,14.8
2018-09-06T00:53:13.459Z,14.8
2018-09-06T00:54:14.389Z,14.7
2018-09-06T00:55:14.295Z,14.7
2018-09-06T00:56:14.271Z,14.7
2018-09-06T00:57:17.114Z,14.7
2018-09-06T00:58:17.033Z,14.7
2018-09-06T00:59:19.949Z,14.7
2018-09-06T01:00:19.866Z,14.7
2018-09-06T01:01:21.244Z,14.7
2018-09-06T01:02:21.154Z,14.7
2018-09-06T01:03:21.087Z,14.6
2018-09-06T01:04:20.996Z,14.7
2018-09-06T01:05:24.092Z,14.6
2018-09-06T01:06:24.022Z,14.8
2018-09-06T01:07:23.946Z,14.6
2018-09-06T01:08:24.297Z,14.6
2018-09-06T01:09:24.252Z,14.6
2018-09-06T01:10:24.182Z,14.6
2018-09-06T01:11:31.198Z,14.6
2018-09-06T01:12:31.100Z,14.7
2018-09-06T01:13:34.948Z,14.6
2018-09-06T01:14:34.867Z,14.6
2018-09-06T01:15:34.807Z,14.6
2018-09-06T01:16:34.748Z,14.6
2018-09-06T01:17:35.642Z,14.7
2018-09-06T01:18:36.557Z,14.7
2018-09-06T01:19:36.475Z,14.7
2018-09-06T01:20:45.666Z,14.8
2018-09-06T01:21:49.066Z,14.6
2018-09-06T01:22:48.981Z,14.8
2018-09-06T01:23:51.724Z,14.7
2018-09-06T01:24:51.634Z,14.7
2018-09-06T01:25:51.768Z,14.6
2018-09-06T01:26:51.721Z,14.6
2018-09-06T01:27:51.874Z,14.6
2018-09-06T01:28:51.779Z,14.5
2018-09-06T01:29:57.422Z,14.5
2018-09-06T01:30:57.327Z,14.4
2018-09-06T01:32:00.598Z,14.4
2018-09-06T01:33:03.269Z,14.3
2018-09-06T01:34:03.185Z,14.3
2018-09-06T01:35:03.141Z,14.4
2018-09-06T01:36:03.078Z,14.4
2018-09-06T01:37:03.013Z,14.4
2018-09-06T01:38:11.662Z,14.4
2018-09-06T01:39:11.563Z,14.4
2018-09-06T01:40:15.377Z,14.4
2018-09-06T01:41:15.310Z,14.5
2018-09-06T01:42:15.717Z,14.5
2018-09-06T01:43:15.848Z,14.5
2018-09-06T01:44:15.775Z,14.5
2018-09-06T01:45:15.711Z,14.5
2018-09-06T01:46:15.661Z,14.5
2018-09-06T01:47:19.737Z,14.4
2018-09-06T01:48:19.640Z,14.4
2018-09-06T01:49:19.808Z,14.4
2018-09-06T01:50:19.708Z,14.4
2018-09-06T01:51:20.653Z,14.4
2018-09-06T01:52:21.066Z,14.4
2018-09-06T01:53:20.969Z,14.4
2018-09-06T01:54:20.901Z,14.4
2018-09-06T01:55:20.831Z,14.4
2018-09-06T01:56:20.764Z,14.3
2018-09-06T01:57:21.711Z,14.4
2018-09-06T01:58:21.645Z,14.3
2018-09-06T01:59:21.801Z,14.3
2018-09-06T02:00:21.791Z,14.3
2018-09-06T02:01:27.534Z,14.3
2018-09-06T02:02:27.960Z,14.3
2018-09-06T02:03:28.916Z,14.3
2018-09-06T02:04:28.833Z,14.3
2018-09-06T02:05:28.761Z,14.3
2018-09-06T02:06:28.676Z,14.3
2018-09-06T02:07:28.590Z,14.4
2018-09-06T02:08:28.548Z,14.3
2018-09-06T02:09:28.613Z,14.3
2018-09-06T02:10:28.658Z,14.4
2018-09-06T02:11:29.594Z,14.3
2018-09-06T02:12:29.988Z,14.4
2018-09-06T02:13:29.980Z,14.6
2018-09-06T02:14:29.883Z,14.4
2018-09-06T02:15:33.783Z,14.4
2018-09-06T02:16:33.710Z,14.4
2018-09-06T02:17:37.479Z,14.4
2018-09-06T02:18:37.495Z,14.5
2018-09-06T02:19:37.422Z,14.6
2018-09-06T02:20:46.369Z,14.5
2018-09-06T02:21:46.279Z,14.6
2018-09-06T02:22:46.713Z,14.6
2018-09-06T02:23:46.652Z,14.6
2018-09-06T02:24:47.599Z,14.7
2018-09-06T02:25:47.585Z,14.6
2018-09-06T02:26:47.499Z,14.6
2018-09-06T02:27:51.377Z,14.4
2018-09-06T02:28:51.313Z,14.6
2018-09-06T02:29:51.250Z,14.6
2018-09-06T02:30:51.169Z,14.5
2018-09-06T02:31:51.309Z,14.4
2018-09-06T02:32:51.710Z,14.4
2018-09-06T02:33:51.650Z,14.3
2018-09-06T02:34:54.621Z,14.3
2018-09-06T02:35:54.543Z,14.3
2018-09-06T02:36:57.285Z,14.3
2018-09-06T02:37:57.222Z,14.2
2018-09-06T02:38:57.194Z,14.2
2018-09-06T02:39:57.102Z,14.2
2018-09-06T02:40:57.012Z,14.2
2018-09-06T02:41:57.200Z,14.1
2018-09-06T02:42:57.569Z,14.1
2018-09-06T02:43:57.534Z,14.1
2018-09-06T02:44:57.469Z,14.1
2018-09-06T02:45:57.620Z,14.2
2018-09-06T02:46:57.538Z,14.2
2018-09-06T02:47:57.491Z,14.2
2018-09-06T02:48:57.430Z,14.2
2018-09-06T02:49:57.370Z,14.3
2018-09-06T02:50:57.311Z,14.3
2018-09-06T02:51:57.210Z,14.3
2018-09-06T02:52:58.037Z,14.4
2018-09-06T02:53:58.537Z,14.4
2018-09-06T02:54:58.853Z,14.3
2018-09-06T02:55:58.788Z,14.3
2018-09-06T02:56:58.731Z,14.3
2018-09-06T02:57:58.715Z,14.3
2018-09-06T02:58:58.678Z,14.3
2018-09-06T02:59:58.631Z,14.3
2018-09-06T03:00:58.585Z,14.2
2018-09-06T03:01:58.559Z,14.2
2018-09-06T03:02:59.212Z,14.2
2018-09-06T03:03:59.115Z,14.1
2018-09-06T03:04:59.024Z,14.1
2018-09-06T03:05:58.994Z,14.1
2018-09-06T03:06:58.933Z,14.1
2018-09-06T03:07:58.855Z,14.2
2018-09-06T03:08:59.032Z,14
2018-09-06T03:09:58.961Z,14
2018-09-06T03:10:58.930Z,14
2018-09-06T03:12:03.970Z,14
2018-09-06T03:13:04.354Z,13.9
2018-09-06T03:14:04.310Z,14
2018-09-06T03:15:04.213Z,13.9
2018-09-06T03:16:04.403Z,13.9
2018-09-06T03:17:04.353Z,13.9
2018-09-06T03:18:04.260Z,14
2018-09-06T03:19:04.655Z,14
2018-09-06T03:20:04.568Z,14
2018-09-06T03:21:04.507Z,14
2018-09-06T03:22:04.459Z,14
2018-09-06T03:23:04.819Z,14
2018-09-06T03:24:04.771Z,14
2018-09-06T03:25:05.008Z,14.1
2018-09-06T03:26:04.972Z,14.1
2018-09-06T03:27:13.346Z,14.1
2018-09-06T03:28:17.211Z,14
2018-09-06T03:29:17.133Z,14.1
2018-09-06T03:30:17.051Z,14.1
2018-09-06T03:31:16.978Z,14.1
2018-09-06T03:32:16.963Z,14.1
2018-09-06T03:33:20.916Z,14.1
2018-09-06T03:34:20.847Z,14.2
2018-09-06T03:35:21.204Z,14.2
2018-09-06T03:36:21.165Z,14.2
2018-09-06T03:37:21.093Z,14.2
2018-09-06T03:38:23.997Z,14.1
2018-09-06T03:39:23.994Z,14.2
2018-09-06T03:40:23.909Z,14.1
2018-09-06T03:41:23.862Z,14.1
2018-09-06T03:42:23.764Z,14.1
2018-09-06T03:43:25.189Z,14.1
2018-09-06T03:44:25.151Z,13.9
2018-09-06T03:45:25.074Z,14
2018-09-06T03:46:25.029Z,14
2018-09-06T03:47:24.954Z,14
2018-09-06T03:48:25.092Z,14
2018-09-06T03:49:25.230Z,14
2018-09-06T03:50:25.168Z,13.9
2018-09-06T03:51:25.109Z,13.9
2018-09-06T03:52:25.101Z,13.9
2018-09-06T03:53:25.518Z,13.9
2018-09-06T03:54:25.465Z,13.9
2018-09-06T03:55:25.428Z,13.9
2018-09-06T03:56:25.384Z,13.9
2018-09-06T03:57:25.327Z,13.9
2018-09-06T03:58:25.261Z,13.8
2018-09-06T03:59:25.182Z,13.8
2018-09-06T04:00:25.188Z,13.8
2018-09-06T04:01:25.123Z,13.8
2018-09-06T04:02:26.057Z,13.7
2018-09-06T04:03:29.355Z,13.7
2018-09-06T04:04:29.341Z,13.6
2018-09-06T04:05:29.303Z,13.6
2018-09-06T04:06:29.255Z,13.6
2018-09-06T04:07:29.192Z,13.6
2018-09-06T04:08:29.125Z,13.6
2018-09-06T04:09:29.055Z,13.6
2018-09-06T04:10:28.979Z,13.5
2018-09-06T04:11:28.904Z,13.5
2018-09-06T04:12:28.840Z,13.5
2018-09-06T04:13:29.225Z,13.4
2018-09-06T04:14:29.203Z,13.4
2018-09-06T04:15:29.116Z,13.4
2018-09-06T04:16:29.036Z,13.4
2018-09-06T04:17:28.957Z,13.3
2018-09-06T04:18:29.192Z,13.3
2018-09-06T04:19:29.452Z,13.3
2018-09-06T04:20:29.381Z,13.4
2018-09-06T04:21:29.308Z,13.4
2018-09-06T04:22:29.238Z,13.4
2018-09-06T04:23:29.636Z,13.5
2018-09-06T04:24:29.709Z,13.5
2018-09-06T04:25:29.641Z,13.5
2018-09-06T04:26:29.574Z,13.5
2018-09-06T04:27:29.503Z,13.6
2018-09-06T04:28:29.520Z,13.6
2018-09-06T04:29:29.485Z,13.6
2018-09-06T04:30:29.414Z,13.6
2018-09-06T04:31:29.327Z,13.5
2018-09-06T04:32:31.755Z,13.5
2018-09-06T04:33:32.181Z,13.5
2018-09-06T04:34:32.117Z,13.5
2018-09-06T04:35:32.278Z,13.5
2018-09-06T04:36:32.717Z,13.5
2018-09-06T04:37:32.676Z,13.5
2018-09-06T04:38:32.593Z,13.4
2018-09-06T04:39:32.592Z,13.4
2018-09-06T04:40:32.499Z,13.5
2018-09-06T04:41:32.453Z,13.4
2018-09-06T04:42:32.366Z,13.4
2018-09-06T04:43:32.857Z,13.4
2018-09-06T04:44:32.930Z,13.4
2018-09-06T04:45:32.861Z,13.5
2018-09-06T04:46:32.807Z,13.5
2018-09-06T04:47:32.727Z,13.4
2018-09-06T04:48:32.670Z,13.4
2018-09-06T04:49:33.615Z,13.5
2018-09-06T04:50:33.562Z,13.6
2018-09-06T04:51:33.507Z,13.5
2018-09-06T04:52:33.440Z,13.5
2018-09-06T04:53:33.855Z,13.6
2018-09-06T04:54:33.819Z,13.6
2018-09-06T04:55:33.741Z,13.6
2018-09-06T04:56:33.680Z,13.6
2018-09-06T04:57:33.609Z,13.6
2018-09-06T04:58:33.976Z,13.6
2018-09-06T04:59:34.147Z,13.6
2018-09-06T05:00:34.082Z,13.6
2018-09-06T05:01:33.988Z,13.6
2018-09-06T05:02:33.902Z,13.6
2018-09-06T05:03:34.254Z,13.6
2018-09-06T05:04:34.163Z,13.6
2018-09-06T05:05:34.095Z,13.6
2018-09-06T05:06:34.029Z,13.6
2018-09-06T05:07:33.954Z,13.6
2018-09-06T05:08:33.863Z,13.7
2018-09-06T05:09:33.813Z,13.8
2018-09-06T05:10:33.762Z,13.8
2018-09-06T05:11:33.677Z,13.8
2018-09-06T05:12:33.619Z,13.8
2018-09-06T05:13:33.986Z,13.8
2018-09-06T05:14:33.896Z,13.8
2018-09-06T05:15:33.813Z,13.9
2018-09-06T05:16:33.736Z,13.9
2018-09-06T05:17:33.691Z,13.9
2018-09-06T05:18:33.610Z,13.9
2018-09-06T05:19:33.524Z,14
2018-09-06T05:20:33.444Z,13.9
2018-09-06T05:21:33.410Z,13.9
2018-09-06T05:22:33.338Z,13.9
2018-09-06T05:23:33.770Z,13.9
2018-09-06T05:24:33.668Z,13.9
2018-09-06T05:25:33.580Z,13.9
2018-09-06T05:26:33.493Z,14
2018-09-06T05:27:33.416Z,14
2018-09-06T05:28:33.322Z,14
2018-09-06T05:29:33.226Z,13.9
2018-09-06T05:30:33.151Z,13.9
2018-09-06T05:31:33.134Z,14
2018-09-06T05:32:33.049Z,14
2018-09-06T05:32:42.435Z,14
2018-09-06T05:33:49.531Z,14.1
2018-09-06T05:34:56.175Z,14
2018-09-06T05:36:00.430Z,14
2018-09-06T05:37:01.700Z,14
2018-09-06T05:38:02.638Z,14.1
2018-09-06T05:39:12.297Z,14.1
2018-09-06T05:40:12.495Z,14
2018-09-06T05:41:16.201Z,14.1
2018-09-06T05:42:16.122Z,14
2018-09-06T05:43:16.711Z,14.1
2018-09-06T05:44:17.045Z,14.1
2018-09-06T05:45:17.623Z,14.1
2018-09-06T05:46:24.275Z,14.1
2018-09-06T05:47:24.576Z,14.1
2018-09-06T05:48:25.081Z,14.2
2018-09-06T05:49:26.227Z,14.2
2018-09-06T05:50:26.358Z,14.2
2018-09-06T05:51:29.677Z,14.3
2018-09-06T05:52:29.848Z,14.3
2018-09-06T05:53:33.051Z,14.3
2018-09-06T05:54:34.014Z,14.4
2018-09-06T05:55:34.811Z,14.4
2018-09-06T05:56:37.277Z,14.5
2018-09-06T05:57:40.005Z,14.6
2018-09-06T05:58:40.369Z,14.6
2018-09-06T05:59:43.270Z,14.6
2018-09-06T06:00:43.689Z,14.8
2018-09-06T06:01:43.643Z,14.9
2018-09-06T06:02:43.832Z,15
2018-09-06T06:03:46.570Z,15.1
2018-09-06T06:04:48.188Z,15.2
2018-09-06T06:05:53.605Z,15.3
2018-09-06T06:06:53.537Z,15.3
2018-09-06T06:07:53.494Z,15.4
2018-09-06T06:08:56.133Z,15.6
2018-09-06T06:09:56.032Z,15.6
2018-09-06T06:10:56.175Z,15.7
2018-09-06T06:11:56.454Z,15.8
2018-09-06T06:13:00.744Z,16
2018-09-06T06:14:00.655Z,16.1
2018-09-06T06:15:09.213Z,16.2
2018-09-06T06:16:09.753Z,16.4
2018-09-06T06:17:13.745Z,16.6
2018-09-06T06:18:16.665Z,16.5
2018-09-06T06:19:17.079Z,16.5
2018-09-06T06:20:17.451Z,16.6
2018-09-06T06:21:23.932Z,16.6
2018-09-06T06:22:26.932Z,16.7
2018-09-06T06:23:31.839Z,16.8
2018-09-06T06:24:31.756Z,16.9
2018-09-06T06:25:34.032Z,17
2018-09-06T06:26:34.212Z,17
2018-09-06T06:27:37.089Z,17.1
2018-09-06T06:28:39.755Z,17.3
2018-09-06T06:29:39.673Z,17.4
2018-09-06T06:30:44.473Z,17.4
2018-09-06T06:31:45.685Z,17.5
2018-09-06T06:32:48.595Z,17.5
2018-09-06T06:33:52.102Z,17.5
2018-09-06T06:34:52.171Z,17.5
2018-09-06T06:36:00.109Z,17.6
2018-09-06T06:37:09.320Z,17.6
2018-09-06T06:38:09.925Z,17.7
2018-09-06T06:39:09.869Z,17.7
2018-09-06T06:40:09.781Z,17.9
2018-09-06T06:41:10.145Z,18.1
2018-09-06T06:42:12.869Z,18.2
2018-09-06T06:43:13.236Z,18.3
2018-09-06T06:44:13.189Z,18.4
2018-09-06T06:45:13.093Z,18.6
2018-09-06T06:46:17.461Z,18.6
2018-09-06T06:47:26.100Z,18.8
2018-09-06T06:48:29.675Z,18.9
2018-09-06T06:49:29.597Z,19
2018-09-06T06:50:30.016Z,19
2018-09-06T06:51:34.130Z,19.1
2018-09-06T06:52:34.512Z,19.1
2018-09-06T06:53:34.428Z,19.1
2018-09-06T06:54:35.027Z,19.2
2018-09-06T06:55:35.211Z,19.2
2018-09-06T06:56:35.560Z,19.2
2018-09-06T06:57:45.043Z,19.2
2018-09-06T06:58:47.197Z,19
2018-09-06T06:59:59.171Z,18.9
2018-09-06T07:00:59.521Z,18.9
2018-09-06T07:01:59.865Z,19
2018-09-06T07:02:59.766Z,18.9
2018-09-06T07:04:00.898Z,19
2018-09-06T07:05:00.884Z,18.9
2018-09-06T07:06:00.811Z,19
2018-09-06T07:07:04.697Z,19.2
2018-09-06T07:08:10.397Z,19.3
2018-09-06T07:09:16.553Z,19.3
2018-09-06T07:10:16.507Z,19.5
2018-09-06T07:11:16.425Z,19.5
2018-09-06T07:12:16.353Z,19.6
2018-09-06T07:13:22.342Z,19.7
2018-09-06T07:14:23.251Z,19.7
2018-09-06T07:15:27.497Z,19.7
2018-09-06T07:16:27.422Z,19.9
2018-09-06T07:17:29.132Z,20.1
2018-09-06T07:18:30.390Z,20.1
2018-09-06T07:19:33.165Z,20.2
2018-09-06T07:20:33.099Z,20.2
2018-09-06T07:21:32.994Z,20.3
2018-09-06T07:22:35.604Z,20.3
2018-09-06T07:23:35.559Z,20.3
2018-09-06T07:24:35.476Z,20.4
2018-09-06T07:25:35.398Z,20.4
2018-09-06T07:26:38.617Z,20.7
2018-09-06T07:27:39.031Z,20.7
2018-09-06T07:28:47.743Z,20.7
2018-09-06T07:29:47.650Z,20.7
2018-09-06T07:30:48.214Z,20.6
2018-09-06T07:31:48.117Z,20.6
2018-09-06T07:32:51.257Z,20.9
2018-09-06T07:33:51.165Z,21
2018-09-06T07:34:52.318Z,21.2
2018-09-06T07:35:52.244Z,21.3
2018-09-06T07:36:52.140Z,21.3
2018-09-06T07:37:52.776Z,21.3
2018-09-06T07:38:52.701Z,21.4
2018-09-06T07:39:52.817Z,21.4
2018-09-06T07:40:55.561Z,21.3
2018-09-06T07:41:55.519Z,21.2
2018-09-06T07:42:58.468Z,21.2
2018-09-06T07:43:58.427Z,21
2018-09-06T07:44:58.356Z,20.9
2018-09-06T07:46:01.264Z,20.8
2018-09-06T07:47:01.189Z,20.9
2018-09-06T07:48:02.211Z,21
2018-09-06T07:49:02.126Z,21.1
2018-09-06T07:50:06.199Z,21.2
2018-09-06T07:51:06.489Z,21.2
2018-09-06T07:52:09.589Z,21.2
2018-09-06T07:53:10.010Z,21.3
2018-09-06T07:54:09.915Z,21.5
2018-09-06T07:55:12.680Z,21.5
2018-09-06T07:56:15.318Z,21.4
2018-09-06T07:57:15.690Z,21.4
2018-09-06T07:58:16.043Z,21.3
2018-09-06T07:59:16.175Z,21.3
2018-09-06T08:00:16.316Z,21.3
2018-09-06T08:01:16.540Z,21.3
2018-09-06T08:02:19.266Z,21.3
2018-09-06T08:03:22.323Z,21.3
2018-09-06T08:04:22.243Z,21.4
2018-09-06T08:05:22.206Z,21.3
2018-09-06T08:06:22.135Z,21.4
2018-09-06T08:07:22.059Z,21.4
2018-09-06T08:08:23.134Z,21.3
2018-09-06T08:09:23.047Z,21.4
2018-09-06T08:10:24.182Z,21.6
2018-09-06T08:11:24.126Z,21.7
2018-09-06T08:12:24.041Z,21.8
2018-09-06T08:13:23.956Z,21.7
2018-09-06T08:14:23.862Z,21.8
2018-09-06T08:15:24.438Z,21.9
2018-09-06T08:16:24.348Z,22
2018-09-06T08:17:24.737Z,22.1
2018-09-06T08:18:25.083Z,22
2018-09-06T08:19:25.009Z,22.1
2018-09-06T08:20:24.943Z,22.2
2018-09-06T08:21:27.857Z,22.3
2018-09-06T08:22:27.770Z,22.3
2018-09-06T08:23:27.703Z,22.3
2018-09-06T08:24:28.034Z,22.2
2018-09-06T08:25:31.015Z,22.4
2018-09-06T08:26:33.603Z,22.5
2018-09-06T08:27:34.723Z,22.3
2018-09-06T08:28:35.122Z,22.3
2018-09-06T08:29:35.035Z,22.4
2018-09-06T08:30:35.229Z,22.4
2018-09-06T08:31:39.093Z,22.5
2018-09-06T08:32:39.692Z,22.5
2018-09-06T08:33:40.105Z,22.6
2018-09-06T08:34:41.033Z,22.6
2018-09-06T08:35:43.528Z,22.5
2018-09-06T08:36:43.589Z,22.6
2018-09-06T08:37:43.590Z,22.6
2018-09-06T08:38:46.900Z,22.7
2018-09-06T08:39:46.836Z,22.7
2018-09-06T08:40:46.750Z,22.7
2018-09-06T08:41:50.420Z,22.6
2018-09-06T08:42:51.336Z,22.6
2018-09-06T08:43:51.253Z,22.6
2018-09-06T08:44:51.172Z,22.6
2018-09-06T08:45:51.097Z,22.7
2018-09-06T08:46:51.689Z,22.7
2018-09-06T08:47:51.622Z,22.3
2018-09-06T08:48:52.995Z,22.2
2018-09-06T08:49:53.134Z,22.2
2018-09-06T08:50:53.048Z,22.3
2018-09-06T08:51:59.253Z,22.4
2018-09-06T08:52:59.427Z,22.7
2018-09-06T08:53:59.554Z,22.8
2018-09-06T08:55:02.205Z,22.9
2018-09-06T08:56:02.137Z,23
2018-09-06T08:57:02.078Z,23
2018-09-06T08:58:04.832Z,22.9
2018-09-06T08:59:09.526Z,22.9
2018-09-06T09:00:09.716Z,23
2018-09-06T09:01:09.638Z,22.9
2018-09-06T09:02:14.110Z,22.9
2018-09-06T09:03:16.274Z,22.9
2018-09-06T09:04:16.410Z,23
2018-09-06T09:05:16.562Z,23
2018-09-06T09:06:22.093Z,23.2
2018-09-06T09:07:22.184Z,23
2018-09-06T09:08:25.329Z,23
2018-09-06T09:09:27.446Z,22.9
2018-09-06T09:10:27.396Z,23
2018-09-06T09:11:27.309Z,23
2018-09-06T09:12:30.715Z,23.1
2018-09-06T09:13:33.896Z,22.8
2018-09-06T09:14:33.834Z,22.6
2018-09-06T09:15:37.729Z,22.7
2018-09-06T09:16:37.641Z,22.9
2018-09-06T09:17:37.592Z,23
2018-09-06T09:18:40.774Z,22.9
2018-09-06T09:19:44.146Z,22.9
2018-09-06T09:20:46.862Z,23
2018-09-06T09:21:46.962Z,23.2
2018-09-06T09:22:50.025Z,23.2
2018-09-06T09:23:49.926Z,23.3
2018-09-06T09:24:50.093Z,23.3
2018-09-06T09:25:53.806Z,23.3
2018-09-06T09:26:53.970Z,23.2
2018-09-06T09:27:57.796Z,23.2
2018-09-06T09:28:59.717Z,23
2018-09-06T09:30:01.082Z,22.8
2018-09-06T09:31:02.008Z,22.8
2018-09-06T09:32:12.277Z,22.9
2018-09-06T09:33:13.238Z,23.1
2018-09-06T09:34:13.143Z,23.1
2018-09-06T09:35:13.365Z,23.1
2018-09-06T09:36:13.341Z,23.2
2018-09-06T09:37:13.717Z,23.3
2018-09-06T09:38:14.660Z,23.6
2018-09-06T09:39:15.584Z,23.3
2018-09-06T09:40:19.185Z,23.5
2018-09-06T09:41:19.103Z,23.1
2018-09-06T09:42:20.219Z,23.1
2018-09-06T09:43:20.690Z,23.3
2018-09-06T09:44:24.953Z,23.5
2018-09-06T09:45:24.872Z,23.4
2018-09-06T09:48:27.648Z,23.3
2018-09-06T09:49:27.691Z,23
2018-09-06T09:51:30.929Z,22.9
2018-09-06T09:52:35.076Z,22.9
2018-09-06T09:53:35.692Z,23
2018-09-06T09:54:36.051Z,23.1
2018-09-06T09:55:38.511Z,23.3
2018-09-06T09:56:38.651Z,23.3
2018-09-06T09:57:38.561Z,23.1
2018-09-06T09:58:42.343Z,23.2
2018-09-06T09:59:42.257Z,23
2018-09-06T10:00:43.826Z,22.8
2018-09-06T10:01:44.408Z,22.9
2018-09-06T10:02:44.328Z,23.3
2018-09-06T10:03:44.282Z,23
2018-09-06T10:04:44.361Z,23
2018-09-06T10:05:44.299Z,23
2018-09-06T10:06:44.249Z,23
2018-09-06T10:07:44.206Z,23.1
2018-09-06T10:08:47.185Z,23.2
2018-09-06T10:09:47.342Z,23.1
2018-09-06T10:10:47.687Z,23
2018-09-06T10:11:47.636Z,23.2
2018-09-06T10:12:47.572Z,23.3
2018-09-06T10:13:47.498Z,23.5
2018-09-06T10:14:47.436Z,23.5
2018-09-06T10:15:50.253Z,23.5
2018-09-06T10:16:50.168Z,23.6
2018-09-06T10:17:50.072Z,23.6
2018-09-06T10:18:49.994Z,23.5
2018-09-06T10:19:52.571Z,23.6
2018-09-06T10:20:53.364Z,23.3
2018-09-06T10:21:53.286Z,23.3
2018-09-06T10:22:53.202Z,23.4
2018-09-06T10:23:57.056Z,23.5
2018-09-06T10:24:57.003Z,23.4
2018-09-06T10:26:11.930Z,23.4
2018-09-06T10:27:11.852Z,23.1
2018-09-06T10:28:14.823Z,22.6
2018-09-06T10:29:14.950Z,22.6
2018-09-06T10:30:15.115Z,22.5
2018-09-06T10:31:16.682Z,22.6
2018-09-06T10:32:17.590Z,22.7
2018-09-06T10:33:18.516Z,22.6
2018-09-06T10:34:22.422Z,22.5
2018-09-06T10:35:22.821Z,22.4
2018-09-06T10:36:25.044Z,22.5
2018-09-06T10:37:25.613Z,22.7
2018-09-06T10:38:25.566Z,22.9
2018-09-06T10:39:25.759Z,23
2018-09-06T10:40:26.365Z,23
2018-09-06T10:41:27.141Z,22.9
2018-09-06T10:42:27.288Z,22.5
2018-09-06T10:43:27.222Z,22.6
2018-09-06T10:44:27.159Z,22.7
2018-09-06T10:45:29.652Z,22.6
2018-09-06T10:46:31.231Z,22.7
2018-09-06T10:47:31.136Z,22.9
2018-09-06T10:48:31.044Z,23
2018-09-06T10:49:31.952Z,23.1
2018-09-06T10:50:32.888Z,23.2
2018-09-06T10:51:34.192Z,23.1
2018-09-06T10:52:36.909Z,23.2
2018-09-06T10:53:36.817Z,23.1
2018-09-06T10:54:36.739Z,23
2018-09-06T10:55:36.707Z,22.8
2018-09-06T10:56:40.209Z,22.8
2018-09-06T10:57:40.127Z,22.8
2018-09-06T10:58:40.486Z,22.6
2018-09-06T10:59:43.001Z,22.8
2018-09-06T11:00:43.648Z,22.9
2018-09-06T11:01:44.437Z,23
2018-09-06T11:02:44.363Z,23.2
2018-09-06T11:03:44.262Z,23.2
2018-09-06T11:04:44.181Z,23.3
2018-09-06T11:05:44.378Z,23.2
2018-09-06T11:06:44.755Z,23.1
2018-09-06T11:07:44.690Z,23.1
2018-09-06T11:08:44.886Z,23.1
2018-09-06T11:09:44.803Z,23.1
2018-09-06T11:10:44.933Z,22.9
2018-09-06T11:11:45.536Z,22.8
2018-09-06T11:12:45.701Z,22.7
2018-09-06T11:13:45.860Z,22.9
2018-09-06T11:14:45.985Z,22.8
2018-09-06T11:15:45.896Z,22.8
2018-09-06T11:16:46.502Z,22.8
2018-09-06T11:17:47.107Z,22.7
2018-09-06T11:18:48.334Z,22.7
2018-09-06T11:19:48.244Z,22.8
2018-09-06T11:20:48.151Z,22.9
2018-09-06T11:21:51.100Z,22.9
2018-09-06T11:22:55.330Z,23
2018-09-06T11:23:55.253Z,23
2018-09-06T11:24:58.413Z,23
2018-09-06T11:25:59.066Z,22.8
2018-09-06T11:26:59.672Z,22.7
2018-09-06T11:28:00.032Z,22.6
2018-09-06T11:29:00.349Z,22.5
2018-09-06T11:30:00.259Z,22.7
2018-09-06T11:31:00.226Z,22.8
2018-09-06T11:32:00.575Z,22.7
2018-09-06T11:33:00.500Z,22.7
2018-09-06T11:34:00.417Z,22.8
2018-09-06T11:35:00.325Z,22.6
2018-09-06T11:36:00.229Z,22.6
2018-09-06T11:37:00.145Z,22.7
2018-09-06T11:38:00.066Z,22.7
2018-09-06T11:38:59.988Z,22.6
2018-09-06T11:40:00.023Z,22.7
2018-09-06T11:41:00.360Z,22.7
2018-09-06T11:42:00.731Z,22.7
2018-09-06T11:43:00.639Z,22.7
2018-09-06T11:44:00.578Z,22.8
2018-09-06T11:45:00.502Z,22.8
2018-09-06T11:46:00.445Z,22.6
2018-09-06T11:47:00.496Z,22.5
2018-09-06T11:48:00.603Z,22.6
2018-09-06T11:49:00.575Z,22.7
2018-09-06T11:50:00.494Z,22.7
2018-09-06T11:51:00.423Z,22.7
2018-09-06T11:52:00.997Z,22.8
2018-09-06T11:53:00.903Z,22.9
2018-09-06T11:54:00.845Z,22.8
2018-09-06T11:55:00.756Z,22.8
2018-09-06T11:56:00.668Z,22.8
2018-09-06T11:57:00.561Z,22.9
2018-09-06T11:58:00.687Z,22.8
2018-09-06T11:59:00.630Z,22.6
2018-09-06T12:00:00.547Z,22.5
2018-09-06T12:01:00.457Z,22.4
2018-09-06T12:02:01.075Z,22.4
2018-09-06T12:03:01.201Z,22.6
2018-09-06T12:04:01.388Z,22.7
2018-09-06T12:05:01.332Z,22.7
2018-09-06T12:06:01.403Z,22.6
2018-09-06T12:07:01.640Z,22.8
2018-09-06T12:08:01.553Z,22.7
2018-09-06T12:09:01.460Z,22.7
2018-09-06T12:10:01.465Z,22.7
2018-09-06T12:11:01.381Z,22.7
2018-09-06T12:12:01.713Z,22.7
2018-09-06T12:13:01.647Z,22.5
2018-09-06T12:14:01.568Z,22.4
2018-09-06T12:15:01.492Z,22.5
2018-09-06T12:16:01.434Z,22.4
2018-09-06T12:17:01.591Z,22.5
2018-09-06T12:18:01.519Z,22.5
2018-09-06T12:19:01.441Z,22.5
2018-09-06T12:20:01.351Z,22.5
2018-09-06T12:21:01.293Z,22.4
2018-09-06T12:22:01.870Z,22.5
2018-09-06T12:23:01.780Z,22.5
2018-09-06T12:24:01.689Z,22.5
2018-09-06T12:25:01.839Z,22.6
2018-09-06T12:26:01.770Z,22.5
2018-09-06T12:27:01.683Z,22.5
2018-09-06T12:28:01.596Z,22.6
2018-09-06T12:29:01.536Z,22.7
2018-09-06T12:30:01.459Z,22.6
2018-09-06T12:31:01.386Z,22.7
2018-09-06T12:32:02.029Z,22.6
2018-09-06T12:33:01.998Z,22.6
2018-09-06T12:34:02.029Z,22.6
2018-09-06T12:35:01.962Z,22.7
2018-09-06T12:36:01.893Z,22.8
2018-09-06T12:37:01.802Z,22.8
2018-09-06T12:38:01.934Z,22.8
2018-09-06T12:39:01.848Z,22.8
2018-09-06T12:40:01.767Z,22.9
2018-09-06T12:41:01.722Z,22.9
2018-09-06T12:42:06.493Z,23
2018-09-06T12:43:08.962Z,23
2018-09-06T12:44:11.932Z,22.9
2018-09-06T12:45:14.830Z,23
2018-09-06T12:46:15.837Z,23
2018-09-06T12:47:21.316Z,23
2018-09-06T12:48:24.023Z,22.9
2018-09-06T12:49:27.090Z,22.9
2018-09-06T12:50:29.866Z,22.8
2018-09-06T12:51:33.239Z,22.7
2018-09-06T12:52:34.660Z,22.6
2018-09-06T12:53:38.442Z,22.6
2018-09-06T12:54:40.562Z,22.7
2018-09-06T12:55:43.450Z,22.8
2018-09-06T12:56:46.562Z,22.8
2018-09-06T12:57:46.494Z,22.8
2018-09-06T12:58:49.620Z,22.9
2018-09-06T12:59:49.555Z,22.9
2018-09-06T13:00:49.468Z,22.8
2018-09-06T13:01:50.075Z,22.8
2018-09-06T13:02:51.712Z,22.7
2018-09-06T13:03:57.016Z,22.6
2018-09-06T13:04:59.713Z,22.5
2018-09-06T13:06:02.411Z,22.5
2018-09-06T13:07:02.598Z,22.5
2018-09-06T13:08:05.619Z,22.6
2018-09-06T13:09:06.851Z,22.7
2018-09-06T13:10:06.984Z,22.7
2018-09-06T13:11:06.901Z,22.8
2018-09-06T13:12:07.373Z,22.8
2018-09-06T13:13:07.719Z,22.8
2018-09-06T13:14:07.638Z,22.7
2018-09-06T13:15:08.566Z,22.7
2018-09-06T13:16:17.313Z,22.7
2018-09-06T13:17:18.248Z,22.7
2018-09-06T13:18:21.498Z,22.8
2018-09-06T13:19:22.309Z,22.8
2018-09-06T13:20:22.240Z,22.9
2018-09-06T13:21:22.166Z,22.9
2018-09-06T13:22:27.007Z,22.9
2018-09-06T13:23:28.038Z,22.9
2018-09-06T13:24:29.625Z,22.9
2018-09-06T13:25:29.759Z,22.9
2018-09-06T13:26:33.539Z,23
2018-09-06T13:27:36.268Z,23
2018-09-06T13:28:36.632Z,23
2018-09-06T13:29:40.358Z,23.1
2018-09-06T13:30:40.944Z,23.1
2018-09-06T13:31:40.861Z,23.1
2018-09-06T13:32:40.790Z,23
2018-09-06T13:33:41.160Z,22.9
2018-09-06T13:34:41.060Z,23
2018-09-06T13:35:41.202Z,23.2
2018-09-06T13:36:41.460Z,23.2
2018-09-06T13:37:41.387Z,23.2
2018-09-06T13:38:45.194Z,23.3
2018-09-06T13:39:45.091Z,23.3